Overview Statistics Trail Chart Weather Telemetry Raw packets
 

This is the latest recevied weather packets stored in our database for station/object KJ6HT. If no packets are shown the sender has not sent any weather packets the latest 10 day(s).

<< 9 10 11 12 13 14 15 >>
Time Temp. Humidity Pressure Rain* Wind** Luminosity Snow
1788448537 20.56° C 73% 1013.5 hPa 0 mm - - -
1788447633 19.44° C 76% 1013.5 hPa 0 mm - - -
1788446731 19.44° C 76% 1013.4 hPa 0 mm - - -
1788445829 18.89° C 77% 1013.2 hPa 0 mm - - -
1788444928 17.78° C 83% 1013.1 hPa 0 mm - - -
1788393679 28.89° C 43% 1011.4 hPa 0 mm - - -
1788392745 28.89° C 44% 1011.6 hPa 0 mm - - -
1788391877 29.44° C 43% 1011.5 hPa 0 mm - - -
1788390943 29.44° C 43% 1011.6 hPa 0 mm - - -
1788390032 30° C 42% 1011.7 hPa 0 mm - - -
1788389181 30° C 41% 1011.8 hPa 0 mm - - -
1788388247 30.56° C 39% 1012.1 hPa 0 mm - - -
1788387307 30.56° C 37% 1012.3 hPa 0 mm - - -
1788386474 30.56° C 37% 1012.4 hPa 0 mm - - -
1788385530 30.56° C 37% 1012.5 hPa 0 mm - - -
1788384606 30.56° C 37% 1012.6 hPa 0 mm - - -
1788383763 30.56° C 37% 1012.7 hPa 0 mm - - -
1788382833 31.11° C 36% 1012.9 hPa 0 mm - - -
1788381980 30° C 40% 1013 hPa 0 mm - - -
1788381021 30° C 40% 1013.2 hPa 0 mm - - -
1788380175 30° C 37% 1013.4 hPa 0 mm - - -
1788379233 28.89° C 41% 1013.5 hPa 0 mm - - -
1788378319 29.44° C 40% 1013.6 hPa 0 mm - - -
1788377475 28.89° C 40% 1013.8 hPa 0 mm - - -
1788376530 27.78° C 40% 1014 hPa 0 mm - - -

* Rain latest hour (hover to see other rain measurements)
** Current wind speed in m/s (hover to see current wind gust speed)